sensor_id;sensor_type;location;lat;lon;timestamp;pressure;altitude;pressure_sealevel;temperature;humidity
64243;BME280;50573;51.512;5.386;2023-06-19T00:05:22;170425.59;;;22.23;68.81
64243;BME280;50573;51.512;5.386;2023-06-19T00:15:28;170340.19;;;21.91;70.26
64243;BME280;50573;51.512;5.386;2023-06-19T00:25:31;170245.41;;;21.55;72.78
64243;BME280;50573;51.512;5.386;2023-06-19T00:35:36;170160.06;;;21.23;74.47
64243;BME280;50573;51.512;5.386;2023-06-19T00:45:39;170122.69;;;21.09;75.50
64243;BME280;50573;51.512;5.386;2023-06-19T00:55:44;170110.69;;;21.05;75.49
64243;BME280;50573;51.512;5.386;2023-06-19T01:05:48;170069.31;;;20.89;76.32
64243;BME280;50573;51.512;5.386;2023-06-19T01:15:56;170021.31;;;20.71;77.54
64243;BME280;50573;51.512;5.386;2023-06-19T01:26:01;169993.28;;;20.60;79.87
64243;BME280;50573;51.512;5.386;2023-06-19T01:36:05;169973.31;;;20.53;80.64
64243;BME280;50573;51.512;5.386;2023-06-19T01:46:10;169919.94;;;20.33;82.62
64243;BME280;50573;51.512;5.386;2023-06-19T01:56:13;169863.91;;;20.12;84.42
64243;BME280;50573;51.512;5.386;2023-06-19T02:06:18;169838.59;;;20.02;86.97
64243;BME280;50573;51.512;5.386;2023-06-19T02:16:23;169842.59;;;20.04;88.56
64243;BME280;50573;51.512;5.386;2023-06-19T02:26:27;169813.28;;;19.93;89.56
64243;BME280;50573;51.512;5.386;2023-06-19T02:36:31;169757.31;;;19.72;92.22
64243;BME280;50573;51.512;5.386;2023-06-19T02:46:37;169728.00;;;19.61;94.08
64243;BME280;50573;51.512;5.386;2023-06-19T02:56:40;169706.66;;;19.53;94.39
64243;BME280;50573;51.512;5.386;2023-06-19T03:06:44;169665.38;;;19.37;96.28
64243;BME280;50573;51.512;5.386;2023-06-19T03:16:48;169648.06;;;19.31;96.94
64243;BME280;50573;51.512;5.386;2023-06-19T03:26:52;169600.03;;;19.12;100.00
64243;BME280;50573;51.512;5.386;2023-06-19T03:36:55;169577.38;;;19.04;100.00
64243;BME280;50573;51.512;5.386;2023-06-19T03:47:00;169610.69;;;19.16;100.00
64243;BME280;50573;51.512;5.386;2023-06-19T03:57:05;169677.38;;;19.42;100.00
64243;BME280;50573;51.512;5.386;2023-06-19T04:07:11;169718.66;;;19.57;100.00
64243;BME280;50573;51.512;5.386;2023-06-19T04:17:16;169745.31;;;19.67;100.00
64243;BME280;50573;51.512;5.386;2023-06-19T04:27:21;169778.63;;;19.80;100.00
64243;BME280;50573;51.512;5.386;2023-06-19T04:37:25;169819.97;;;19.95;100.00
64243;BME280;50573;51.512;5.386;2023-06-19T04:47:30;169809.28;;;19.91;100.00
64243;BME280;50573;51.512;5.386;2023-06-19T04:57:49;169897.31;;;20.24;99.10
64243;BME280;50573;51.512;5.386;2023-06-19T05:07:53;169911.97;;;20.30;99.12
64243;BME280;50573;51.512;5.386;2023-06-19T05:17:56;169967.94;;;20.51;97.93
64243;BME280;50573;51.512;5.386;2023-06-19T05:28:01;169999.97;;;20.63;96.98
64243;BME280;50573;51.512;5.386;2023-06-19T05:38:06;170042.63;;;20.79;96.03
64243;BME280;50573;51.512;5.386;2023-06-19T05:48:11;170085.31;;;20.95;94.75
64243;BME280;50573;51.512;5.386;2023-06-19T05:58:14;170172.06;;;21.28;92.84
64243;BME280;50573;51.512;5.386;2023-06-19T06:08:18;170202.75;;;21.39;87.95
64243;BME280;50573;51.512;5.386;2023-06-19T06:18:21;170245.41;;;21.55;86.07
64243;BME280;50573;51.512;5.386;2023-06-19T06:28:26;170317.50;;;21.82;83.37
64243;BME280;50573;51.512;5.386;2023-06-19T06:38:29;170350.84;;;21.95;81.05
64243;BME280;50573;51.512;5.386;2023-06-19T06:48:33;170456.28;;;22.35;78.65
64243;BME280;50573;51.512;5.386;2023-06-19T06:58:36;170481.63;;;22.44;77.81
64243;BME280;50573;51.512;5.386;2023-06-19T07:08:42;170480.28;;;22.44;76.35
64243;BME280;50573;51.512;5.386;2023-06-19T07:18:45;170557.75;;;22.73;74.11
64243;BME280;50573;51.512;5.386;2023-06-19T07:28:49;170585.81;;;22.83;73.79
64243;BME280;50573;51.512;5.386;2023-06-19T07:38:52;170672.59;;;23.16;73.14
64243;BME280;50573;51.512;5.386;2023-06-19T07:48:57;170669.88;;;23.15;74.01
64243;BME280;50573;51.512;5.386;2023-06-19T07:59:00;170824.88;;;23.73;70.93
64243;BME280;50573;51.512;5.386;2023-06-19T08:09:08;170847.53;;;23.82;70.60
64243;BME280;50573;51.512;5.386;2023-06-19T08:19:11;171017.25;;;24.45;66.52
64243;BME280;50573;51.512;5.386;2023-06-19T08:29:15;171003.91;;;24.40;66.96
64243;BME280;50573;51.512;5.386;2023-06-19T08:39:18;171001.25;;;24.39;64.88
64243;BME280;50573;51.512;5.386;2023-06-19T08:49:29;170967.81;;;24.27;66.08
64243;BME280;50573;51.512;5.386;2023-06-19T08:59:32;171142.91;;;24.93;65.69
64243;BME280;50573;51.512;5.386;2023-06-19T09:09:36;171102.81;;;24.78;65.53
64243;BME280;50573;51.512;5.386;2023-06-19T09:19:47;171118.84;;;24.84;64.51
64243;BME280;50573;51.512;5.386;2023-06-19T09:29:52;171228.44;;;25.25;61.19
64243;BME280;50573;51.512;5.386;2023-06-19T09:39:56;171193.69;;;25.12;61.52
64243;BME280;50573;51.512;5.386;2023-06-19T09:50:01;171257.88;;;25.36;59.12
64243;BME280;50573;51.512;5.386;2023-06-19T10:00:07;171346.13;;;25.69;58.31
64243;BME280;50573;51.512;5.386;2023-06-19T10:10:24;171334.09;;;25.64;60.79
64243;BME280;50573;51.512;5.386;2023-06-19T10:20:30;171386.25;;;25.84;56.21
64243;BME280;50573;51.512;5.386;2023-06-19T10:30:37;171532.03;;;26.39;55.99
64243;BME280;50573;51.512;5.386;2023-06-19T10:40:40;171728.69;;;27.12;53.51
64243;BME280;50573;51.512;5.386;2023-06-19T10:50:44;171719.31;;;27.09;52.46
64243;BME280;50573;51.512;5.386;2023-06-19T11:00:47;171762.16;;;27.25;49.21
64243;BME280;50573;51.512;5.386;2023-06-19T11:10:52;171763.47;;;27.25;50.61
64243;BME280;50573;51.512;5.386;2023-06-19T11:20:55;171819.72;;;27.47;53.36
64243;BME280;50573;51.512;5.386;2023-06-19T11:31:01;171775.53;;;27.30;49.85
64243;BME280;50573;51.512;5.386;2023-06-19T11:41:06;171858.50;;;27.61;47.80
64243;BME280;50573;51.512;5.386;2023-06-19T11:51:11;171866.53;;;27.64;47.81
64243;BME280;50573;51.512;5.386;2023-06-19T12:01:17;171916.06;;;27.83;46.04
64243;BME280;50573;51.512;5.386;2023-06-19T12:11:22;171953.56;;;27.97;45.65
64243;BME280;50573;51.512;5.386;2023-06-19T12:21:26;172043.28;;;28.30;42.37
64243;BME280;50573;51.512;5.386;2023-06-19T12:31:39;171961.59;;;28.00;46.25
64243;BME280;50573;51.512;5.386;2023-06-19T12:41:42;172173.13;;;28.79;43.27
64243;BME280;50573;51.512;5.386;2023-06-19T12:51:47;172293.72;;;29.24;40.93
64243;BME280;50573;51.512;5.386;2023-06-19T13:01:53;172387.44;;;29.59;39.87
64243;BME280;50573;51.512;5.386;2023-06-19T13:11:57;172486.63;;;29.97;38.72
64243;BME280;50573;51.512;5.386;2023-06-19T13:22:01;172470.56;;;29.91;37.36
64243;BME280;50573;51.512;5.386;2023-06-19T13:32:06;172611.25;;;30.43;34.86
64243;BME280;50573;51.512;5.386;2023-06-19T13:42:09;172812.31;;;31.19;33.39
64243;BME280;50573;51.512;5.386;2023-06-19T13:52:14;172941.03;;;31.67;33.10
64243;BME280;50573;51.512;5.386;2023-06-19T14:02:17;173048.31;;;32.07;34.41
64243;BME280;50573;51.512;5.386;2023-06-19T14:12:22;173330.03;;;33.12;32.13
64243;BME280;50573;51.512;5.386;2023-06-19T14:22:25;173276.41;;;32.92;31.58
64243;BME280;50573;51.512;5.386;2023-06-19T14:32:29;173250.88;;;32.83;32.10
64243;BME280;50573;51.512;5.386;2023-06-19T14:42:32;173436.06;;;33.52;30.52
64243;BME280;50573;51.512;5.386;2023-06-19T14:52:37;173307.25;;;33.04;30.29
64243;BME280;50573;51.512;5.386;2023-06-19T15:02:40;173205.25;;;32.66;31.10
64243;BME280;50573;51.512;5.386;2023-06-19T15:12:45;173245.50;;;32.81;29.80
64243;BME280;50573;51.512;5.386;2023-06-19T15:22:49;173089.91;;;32.22;31.12
64243;BME280;50573;51.512;5.386;2023-06-19T15:32:53;172923.59;;;31.60;32.79
64243;BME280;50573;51.512;5.386;2023-06-19T15:42:57;172703.75;;;30.78;34.94
64243;BME280;50573;51.512;5.386;2023-06-19T15:53:01;172658.13;;;30.61;33.36
64243;BME280;50573;51.512;5.386;2023-06-19T16:03:04;172512.06;;;30.06;34.75
64243;BME280;50573;51.512;5.386;2023-06-19T16:13:11;172416.97;;;29.70;35.09
64243;BME280;50573;51.512;5.386;2023-06-19T16:23:14;172252.19;;;29.09;36.39
64243;BME280;50573;51.512;5.386;2023-06-19T16:33:18;172187.88;;;28.85;38.46
64243;BME280;50573;51.512;5.386;2023-06-19T16:43:21;172198.63;;;28.89;38.83
64243;BME280;50573;51.512;5.386;2023-06-19T16:53:26;172116.91;;;28.58;39.19
64243;BME280;50573;51.512;5.386;2023-06-19T17:03:29;172079.38;;;28.44;40.66
64243;BME280;50573;51.512;5.386;2023-06-19T17:13:40;171918.72;;;27.84;42.46
64243;BME280;50573;51.512;5.386;2023-06-19T17:23:46;171834.44;;;27.52;44.22
64243;BME280;50573;51.512;5.386;2023-06-19T17:33:57;171780.91;;;27.32;43.03
64243;BME280;50573;51.512;5.386;2023-06-19T17:44:03;171747.44;;;27.19;43.63
64243;BME280;50573;51.512;5.386;2023-06-19T17:54:14;171720.66;;;27.09;43.98
64243;BME280;50573;51.512;5.386;2023-06-19T18:04:21;171677.84;;;26.93;44.86
64243;BME280;50573;51.512;5.386;2023-06-19T18:14:29;171620.31;;;26.72;45.45
64243;BME280;50573;51.512;5.386;2023-06-19T18:24:51;171635.06;;;26.77;45.59
64243;BME280;50573;51.512;5.386;2023-06-19T18:34:55;171615.00;;;26.70;45.05
64243;BME280;50573;51.512;5.386;2023-06-19T18:44:59;171590.84;;;26.61;46.23
64243;BME280;50573;51.512;5.386;2023-06-19T18:55:04;171534.69;;;26.40;46.02
64243;BME280;50573;51.512;5.386;2023-06-19T19:05:11;171517.31;;;26.33;46.81
64243;BME280;50573;51.512;5.386;2023-06-19T19:15:18;171466.50;;;26.14;48.61
64243;BME280;50573;51.512;5.386;2023-06-19T19:25:27;171407.63;;;25.92;48.96
64243;BME280;50573;51.512;5.386;2023-06-19T19:35:34;171303.38;;;25.53;50.87
64243;BME280;50573;51.512;5.386;2023-06-19T19:45:43;171277.97;;;25.43;50.86
64243;BME280;50573;51.512;5.386;2023-06-19T19:55:48;171212.41;;;25.19;52.85
64243;BME280;50573;51.512;5.386;2023-06-19T20:05:51;171101.47;;;24.77;56.74
64243;BME280;50573;51.512;5.386;2023-06-19T20:15:55;171041.28;;;24.54;57.87
64243;BME280;50573;51.512;5.386;2023-06-19T20:25:58;170953.16;;;24.21;59.62
64243;BME280;50573;51.512;5.386;2023-06-19T20:36:04;170907.69;;;24.04;60.96
64243;BME280;50573;51.512;5.386;2023-06-19T20:46:07;170891.69;;;23.98;61.07
64243;BME280;50573;51.512;5.386;2023-06-19T20:56:12;170850.25;;;23.83;62.33
64243;BME280;50573;51.512;5.386;2023-06-19T21:06:15;170843.53;;;23.80;62.11
64243;BME280;50573;51.512;5.386;2023-06-19T21:16:20;170824.88;;;23.73;62.27
64243;BME280;50573;51.512;5.386;2023-06-19T21:26:24;170803.47;;;23.65;63.17
64243;BME280;50573;51.512;5.386;2023-06-19T21:36:29;170792.81;;;23.61;62.94
64243;BME280;50573;51.512;5.386;2023-06-19T21:46:32;170771.44;;;23.53;64.39
64243;BME280;50573;51.512;5.386;2023-06-19T21:56:36;170683.25;;;23.20;67.88
64243;BME280;50573;51.512;5.386;2023-06-19T22:06:40;170633.88;;;23.01;69.49
64243;BME280;50573;51.512;5.386;2023-06-19T22:16:44;170605.81;;;22.91;69.64
64243;BME280;50573;51.512;5.386;2023-06-19T22:26:47;170508.38;;;22.54;74.42
64243;BME280;50573;51.512;5.386;2023-06-19T22:36:52;170414.94;;;22.19;78.80
64243;BME280;50573;51.512;5.386;2023-06-19T22:46:55;170357.53;;;21.98;79.78
64243;BME280;50573;51.512;5.386;2023-06-19T22:56:59;170328.19;;;21.86;80.59
64243;BME280;50573;51.512;5.386;2023-06-19T23:07:02;170285.47;;;21.70;83.50
64243;BME280;50573;51.512;5.386;2023-06-19T23:17:07;170245.41;;;21.55;83.96
64243;BME280;50573;51.512;5.386;2023-06-19T23:27:10;170224.06;;;21.47;83.62
64243;BME280;50573;51.512;5.386;2023-06-19T23:37:14;170218.72;;;21.45;84.87
64243;BME280;50573;51.512;5.386;2023-06-19T23:47:17;170218.72;;;21.45;83.79
64243;BME280;50573;51.512;5.386;2023-06-19T23:57:22;170197.38;;;21.37;84.37
